sensor_id;sensor_type;location;lat;lon;timestamp;temperature;humidity
1461;DHT22;724;49.910;12.530;2023-05-21T00:00:02;14.10;99.90
1461;DHT22;724;49.910;12.530;2023-05-21T00:02:34;14.10;99.90
1461;DHT22;724;49.910;12.530;2023-05-21T00:05:01;14.10;99.90
1461;DHT22;724;49.910;12.530;2023-05-21T00:07:28;14.10;99.90
1461;DHT22;724;49.910;12.530;2023-05-21T00:09:56;14.10;99.90
1461;DHT22;724;49.910;12.530;2023-05-21T00:12:22;14.00;99.90
1461;DHT22;724;49.910;12.530;2023-05-21T00:14:50;14.00;99.90
1461;DHT22;724;49.910;12.530;2023-05-21T00:17:17;14.00;99.90
1461;DHT22;724;49.910;12.530;2023-05-21T00:19:44;13.90;99.90
1461;DHT22;724;49.910;12.530;2023-05-21T00:22:11;13.80;99.90
1461;DHT22;724;49.910;12.530;2023-05-21T00:24:38;13.80;1.00
1461;DHT22;724;49.910;12.530;2023-05-21T00:27:05;13.70;1.00
1461;DHT22;724;49.910;12.530;2023-05-21T00:29:32;13.70;1.00
1461;DHT22;724;49.910;12.530;2023-05-21T00:32:00;13.70;1.00
1461;DHT22;724;49.910;12.530;2023-05-21T00:34:26;13.70;1.00
1461;DHT22;724;49.910;12.530;2023-05-21T00:36:54;13.80;1.00
1461;DHT22;724;49.910;12.530;2023-05-21T00:39:21;13.80;1.00
1461;DHT22;724;49.910;12.530;2023-05-21T00:41:48;13.70;1.00
1461;DHT22;724;49.910;12.530;2023-05-21T00:44:15;13.80;1.00
1461;DHT22;724;49.910;12.530;2023-05-21T00:46:43;13.80;1.00
1461;DHT22;724;49.910;12.530;2023-05-21T00:49:14;13.80;1.00
1461;DHT22;724;49.910;12.530;2023-05-21T00:51:41;13.70;1.00
1461;DHT22;724;49.910;12.530;2023-05-21T00:54:09;13.70;1.00
1461;DHT22;724;49.910;12.530;2023-05-21T00:56:36;13.70;1.00
1461;DHT22;724;49.910;12.530;2023-05-21T00:59:04;13.70;1.00
1461;DHT22;724;49.910;12.530;2023-05-21T01:01:31;13.60;1.00
1461;DHT22;724;49.910;12.530;2023-05-21T01:04:00;13.70;1.00
1461;DHT22;724;49.910;12.530;2023-05-21T01:06:28;13.70;1.00
1461;DHT22;724;49.910;12.530;2023-05-21T01:08:59;13.70;1.00
1461;DHT22;724;49.910;12.530;2023-05-21T01:11:36;13.70;1.00
1461;DHT22;724;49.910;12.530;2023-05-21T01:14:04;13.60;1.00
1461;DHT22;724;49.910;12.530;2023-05-21T01:16:35;13.50;1.00
1461;DHT22;724;49.910;12.530;2023-05-21T01:19:03;13.50;1.00
1461;DHT22;724;49.910;12.530;2023-05-21T01:21:32;13.50;1.00
1461;DHT22;724;49.910;12.530;2023-05-21T01:24:03;13.50;1.00
1461;DHT22;724;49.910;12.530;2023-05-21T01:26:32;13.50;1.00
1461;DHT22;724;49.910;12.530;2023-05-21T01:29:03;13.50;1.00
1461;DHT22;724;49.910;12.530;2023-05-21T01:31:36;13.50;1.00
1461;DHT22;724;49.910;12.530;2023-05-21T01:34:06;13.40;1.00
1461;DHT22;724;49.910;12.530;2023-05-21T01:36:39;13.50;1.00
1461;DHT22;724;49.910;12.530;2023-05-21T01:39:12;13.40;1.00
1461;DHT22;724;49.910;12.530;2023-05-21T01:41:44;13.40;1.00
1461;DHT22;724;49.910;12.530;2023-05-21T01:44:12;13.40;1.00
1461;DHT22;724;49.910;12.530;2023-05-21T01:46:39;13.30;1.00
1461;DHT22;724;49.910;12.530;2023-05-21T01:49:06;13.30;1.00
1461;DHT22;724;49.910;12.530;2023-05-21T01:51:34;13.30;1.00
1461;DHT22;724;49.910;12.530;2023-05-21T01:54:01;13.20;1.00
1461;DHT22;724;49.910;12.530;2023-05-21T01:56:29;13.20;1.00
1461;DHT22;724;49.910;12.530;2023-05-21T01:58:58;13.30;1.00
1461;DHT22;724;49.910;12.530;2023-05-21T02:01:26;13.20;1.00
1461;DHT22;724;49.910;12.530;2023-05-21T02:03:54;13.20;1.00
1461;DHT22;724;49.910;12.530;2023-05-21T02:06:22;13.10;1.00
1461;DHT22;724;49.910;12.530;2023-05-21T02:08:48;13.10;1.00
1461;DHT22;724;49.910;12.530;2023-05-21T02:11:15;13.00;1.00
1461;DHT22;724;49.910;12.530;2023-05-21T02:13:43;13.00;51.70
1461;DHT22;724;49.910;12.530;2023-05-21T02:16:11;13.10;53.40
1461;DHT22;724;49.910;12.530;2023-05-21T02:18:40;13.10;51.20
1461;DHT22;724;49.910;12.530;2023-05-21T02:21:08;13.10;46.30
1461;DHT22;724;49.910;12.530;2023-05-21T02:23:35;13.00;98.20
1461;DHT22;724;49.910;12.530;2023-05-21T02:26:03;13.00;96.80
1461;DHT22;724;49.910;12.530;2023-05-21T02:28:29;13.00;99.90
1461;DHT22;724;49.910;12.530;2023-05-21T02:30:58;13.00;99.90
1461;DHT22;724;49.910;12.530;2023-05-21T02:33:25;13.00;99.90
1461;DHT22;724;49.910;12.530;2023-05-21T02:35:52;13.00;99.90
1461;DHT22;724;49.910;12.530;2023-05-21T02:38:18;12.90;99.90
1461;DHT22;724;49.910;12.530;2023-05-21T02:40:47;13.00;99.90
1461;DHT22;724;49.910;12.530;2023-05-21T02:43:15;12.90;99.90
1461;DHT22;724;49.910;12.530;2023-05-21T02:45:42;12.80;99.90
1461;DHT22;724;49.910;12.530;2023-05-21T02:48:10;12.80;99.90
1461;DHT22;724;49.910;12.530;2023-05-21T02:50:37;12.80;99.90
1461;DHT22;724;49.910;12.530;2023-05-21T02:53:03;12.80;99.90
1461;DHT22;724;49.910;12.530;2023-05-21T02:55:30;12.70;1.00
1461;DHT22;724;49.910;12.530;2023-05-21T02:57:57;12.70;1.00
1461;DHT22;724;49.910;12.530;2023-05-21T03:00:24;12.70;1.00
1461;DHT22;724;49.910;12.530;2023-05-21T03:02:50;12.60;1.00
1461;DHT22;724;49.910;12.530;2023-05-21T03:05:18;12.70;1.00
1461;DHT22;724;49.910;12.530;2023-05-21T03:07:45;12.60;1.00
1461;DHT22;724;49.910;12.530;2023-05-21T03:10:12;12.60;1.00
1461;DHT22;724;49.910;12.530;2023-05-21T03:12:39;12.60;1.00
1461;DHT22;724;49.910;12.530;2023-05-21T03:15:06;12.60;1.00
1461;DHT22;724;49.910;12.530;2023-05-21T03:17:33;12.50;1.00
1461;DHT22;724;49.910;12.530;2023-05-21T03:20:00;12.60;1.00
1461;DHT22;724;49.910;12.530;2023-05-21T03:22:30;12.50;1.00
1461;DHT22;724;49.910;12.530;2023-05-21T03:24:57;12.50;1.00
1461;DHT22;724;49.910;12.530;2023-05-21T03:27:26;12.50;1.00
1461;DHT22;724;49.910;12.530;2023-05-21T03:29:52;12.40;1.00
1461;DHT22;724;49.910;12.530;2023-05-21T03:32:20;12.40;73.60
1461;DHT22;724;49.910;12.530;2023-05-21T03:34:47;12.50;38.10
1461;DHT22;724;49.910;12.530;2023-05-21T03:37:13;12.50;1.00
1461;DHT22;724;49.910;12.530;2023-05-21T03:39:41;12.50;1.00
1461;DHT22;724;49.910;12.530;2023-05-21T03:42:08;12.40;1.00
1461;DHT22;724;49.910;12.530;2023-05-21T03:44:35;12.40;70.70
1461;DHT22;724;49.910;12.530;2023-05-21T03:47:01;12.50;58.20
1461;DHT22;724;49.910;12.530;2023-05-21T03:49:28;12.50;23.80
1461;DHT22;724;49.910;12.530;2023-05-21T03:51:55;12.60;1.00
1461;DHT22;724;49.910;12.530;2023-05-21T03:54:22;12.60;1.00
1461;DHT22;724;49.910;12.530;2023-05-21T03:56:50;12.60;1.00
1461;DHT22;724;49.910;12.530;2023-05-21T03:59:17;12.50;1.00
1461;DHT22;724;49.910;12.530;2023-05-21T04:01:43;12.50;1.00
1461;DHT22;724;49.910;12.530;2023-05-21T04:04:10;12.50;1.00
1461;DHT22;724;49.910;12.530;2023-05-21T04:06:37;12.50;1.00
1461;DHT22;724;49.910;12.530;2023-05-21T04:09:06;12.50;1.00
1461;DHT22;724;49.910;12.530;2023-05-21T04:11:33;12.50;1.00
1461;DHT22;724;49.910;12.530;2023-05-21T04:14:01;12.60;1.00
1461;DHT22;724;49.910;12.530;2023-05-21T04:16:28;12.50;1.00
1461;DHT22;724;49.910;12.530;2023-05-21T04:18:55;12.50;1.00
1461;DHT22;724;49.910;12.530;2023-05-21T04:21:21;12.50;1.00
1461;DHT22;724;49.910;12.530;2023-05-21T04:23:48;12.60;1.00
1461;DHT22;724;49.910;12.530;2023-05-21T04:26:15;12.60;1.00
1461;DHT22;724;49.910;12.530;2023-05-21T04:28:41;12.60;1.00
1461;DHT22;724;49.910;12.530;2023-05-21T04:31:11;12.70;1.00
1461;DHT22;724;49.910;12.530;2023-05-21T04:33:38;12.70;1.00
1461;DHT22;724;49.910;12.530;2023-05-21T04:36:06;12.70;1.00
1461;DHT22;724;49.910;12.530;2023-05-21T04:38:35;12.80;1.00
1461;DHT22;724;49.910;12.530;2023-05-21T04:41:02;12.80;1.00
1461;DHT22;724;49.910;12.530;2023-05-21T04:43:29;12.80;1.00
1461;DHT22;724;49.910;12.530;2023-05-21T04:45:56;12.80;1.00
1461;DHT22;724;49.910;12.530;2023-05-21T04:48:24;12.80;1.00
1461;DHT22;724;49.910;12.530;2023-05-21T04:50:53;12.90;1.00
1461;DHT22;724;49.910;12.530;2023-05-21T04:53:21;12.90;1.00
1461;DHT22;724;49.910;12.530;2023-05-21T04:55:48;12.90;1.00
1461;DHT22;724;49.910;12.530;2023-05-21T04:58:14;13.00;1.00
1461;DHT22;724;49.910;12.530;2023-05-21T05:00:42;13.10;1.00
1461;DHT22;724;49.910;12.530;2023-05-21T05:03:11;13.20;1.00
1461;DHT22;724;49.910;12.530;2023-05-21T05:05:39;13.20;1.00
1461;DHT22;724;49.910;12.530;2023-05-21T05:08:06;13.20;99.90
1461;DHT22;724;49.910;12.530;2023-05-21T05:10:33;13.20;99.90
1461;DHT22;724;49.910;12.530;2023-05-21T05:13:00;13.30;99.90
1461;DHT22;724;49.910;12.530;2023-05-21T05:15:27;13.30;99.90
1461;DHT22;724;49.910;12.530;2023-05-21T05:17:53;13.30;99.90
1461;DHT22;724;49.910;12.530;2023-05-21T05:20:20;13.50;99.90
1461;DHT22;724;49.910;12.530;2023-05-21T05:22:49;13.40;99.90
1461;DHT22;724;49.910;12.530;2023-05-21T05:25:15;13.50;99.90
1461;DHT22;724;49.910;12.530;2023-05-21T05:27:42;13.50;99.90
1461;DHT22;724;49.910;12.530;2023-05-21T05:30:10;13.50;99.90
1461;DHT22;724;49.910;12.530;2023-05-21T05:32:37;13.60;99.90
1461;DHT22;724;49.910;12.530;2023-05-21T05:35:05;13.60;97.70
1461;DHT22;724;49.910;12.530;2023-05-21T05:37:32;13.60;46.00
1461;DHT22;724;49.910;12.530;2023-05-21T05:40:00;13.70;1.00
1461;DHT22;724;49.910;12.530;2023-05-21T05:42:27;13.80;1.00
1461;DHT22;724;49.910;12.530;2023-05-21T05:44:54;13.80;1.00
1461;DHT22;724;49.910;12.530;2023-05-21T05:47:21;13.90;1.00
1461;DHT22;724;49.910;12.530;2023-05-21T05:49:48;13.90;1.00
1461;DHT22;724;49.910;12.530;2023-05-21T05:52:14;14.00;1.00
1461;DHT22;724;49.910;12.530;2023-05-21T05:54:41;14.00;1.00
1461;DHT22;724;49.910;12.530;2023-05-21T05:57:09;14.10;1.00
1461;DHT22;724;49.910;12.530;2023-05-21T05:59:36;14.00;1.00
1461;DHT22;724;49.910;12.530;2023-05-21T06:02:03;14.20;1.00
1461;DHT22;724;49.910;12.530;2023-05-21T06:04:30;14.20;1.00
1461;DHT22;724;49.910;12.530;2023-05-21T06:06:56;14.30;1.00
1461;DHT22;724;49.910;12.530;2023-05-21T06:09:24;14.20;1.00
1461;DHT22;724;49.910;12.530;2023-05-21T06:11:51;14.30;1.00
1461;DHT22;724;49.910;12.530;2023-05-21T06:14:19;14.30;1.00
1461;DHT22;724;49.910;12.530;2023-05-21T06:16:46;14.30;1.00
1461;DHT22;724;49.910;12.530;2023-05-21T06:19:12;14.30;1.00
1461;DHT22;724;49.910;12.530;2023-05-21T06:21:39;14.30;1.00
1461;DHT22;724;49.910;12.530;2023-05-21T06:24:06;14.30;1.00
1461;DHT22;724;49.910;12.530;2023-05-21T06:26:33;14.40;1.00
1461;DHT22;724;49.910;12.530;2023-05-21T06:28:59;14.50;1.00
1461;DHT22;724;49.910;12.530;2023-05-21T06:31:28;14.50;1.00
1461;DHT22;724;49.910;12.530;2023-05-21T06:33:57;14.60;1.00
1461;DHT22;724;49.910;12.530;2023-05-21T06:36:24;14.60;1.00
1461;DHT22;724;49.910;12.530;2023-05-21T06:38:54;14.70;1.00
1461;DHT22;724;49.910;12.530;2023-05-21T06:41:21;14.80;1.00
1461;DHT22;724;49.910;12.530;2023-05-21T06:43:47;14.80;1.00
1461;DHT22;724;49.910;12.530;2023-05-21T06:46:14;14.90;99.90
1461;DHT22;724;49.910;12.530;2023-05-21T06:48:45;14.90;99.90
1461;DHT22;724;49.910;12.530;2023-05-21T06:51:34;15.10;99.90
1461;DHT22;724;49.910;12.530;2023-05-21T06:55:09;15.30;99.90
1461;DHT22;724;49.910;12.530;2023-05-21T06:57:30;15.20;99.90
1461;DHT22;724;49.910;12.530;2023-05-21T06:59:57;15.40;99.90
1461;DHT22;724;49.910;12.530;2023-05-21T07:02:24;15.30;99.90
1461;DHT22;724;49.910;12.530;2023-05-21T07:04:53;15.20;99.90
1461;DHT22;724;49.910;12.530;2023-05-21T07:07:20;15.30;99.90
1461;DHT22;724;49.910;12.530;2023-05-21T07:09:46;15.40;99.90
1461;DHT22;724;49.910;12.530;2023-05-21T07:12:13;15.60;99.90
1461;DHT22;724;49.910;12.530;2023-05-21T07:14:40;15.40;99.90
1461;DHT22;724;49.910;12.530;2023-05-21T07:17:07;15.50;99.90
1461;DHT22;724;49.910;12.530;2023-05-21T07:19:33;15.50;99.90
1461;DHT22;724;49.910;12.530;2023-05-21T07:22:03;15.50;99.90
1461;DHT22;724;49.910;12.530;2023-05-21T07:24:30;15.60;99.90
1461;DHT22;724;49.910;12.530;2023-05-21T07:26:57;15.90;99.90
1461;DHT22;724;49.910;12.530;2023-05-21T07:29:23;15.90;99.90
1461;DHT22;724;49.910;12.530;2023-05-21T07:31:51;15.90;99.90
1461;DHT22;724;49.910;12.530;2023-05-21T07:34:17;16.00;99.90
1461;DHT22;724;49.910;12.530;2023-05-21T07:36:44;16.00;99.90
1461;DHT22;724;49.910;12.530;2023-05-21T07:39:12;16.00;99.90
1461;DHT22;724;49.910;12.530;2023-05-21T07:41:39;16.00;99.90
1461;DHT22;724;49.910;12.530;2023-05-21T07:44:06;16.00;90.70
1461;DHT22;724;49.910;12.530;2023-05-21T07:46:33;16.10;77.80
1461;DHT22;724;49.910;12.530;2023-05-21T07:49:00;16.10;33.40
1461;DHT22;724;49.910;12.530;2023-05-21T07:51:27;16.30;7.80
1461;DHT22;724;49.910;12.530;2023-05-21T07:53:54;16.30;1.00
1461;DHT22;724;49.910;12.530;2023-05-21T07:56:22;16.20;1.00
1461;DHT22;724;49.910;12.530;2023-05-21T07:58:49;16.30;1.00
1461;DHT22;724;49.910;12.530;2023-05-21T08:01:15;16.40;1.00
1461;DHT22;724;49.910;12.530;2023-05-21T08:03:42;16.70;1.00
1461;DHT22;724;49.910;12.530;2023-05-21T08:06:09;16.40;1.00
1461;DHT22;724;49.910;12.530;2023-05-21T08:08:35;16.70;1.00
1461;DHT22;724;49.910;12.530;2023-05-21T08:11:02;16.80;1.00
1461;DHT22;724;49.910;12.530;2023-05-21T08:13:30;17.00;1.00
1461;DHT22;724;49.910;12.530;2023-05-21T08:15:57;17.00;1.00
1461;DHT22;724;49.910;12.530;2023-05-21T08:18:24;17.40;1.00
1461;DHT22;724;49.910;12.530;2023-05-21T08:20:51;17.20;1.00
1461;DHT22;724;49.910;12.530;2023-05-21T08:23:18;17.20;1.00
1461;DHT22;724;49.910;12.530;2023-05-21T08:25:45;17.20;1.00
1461;DHT22;724;49.910;12.530;2023-05-21T08:28:12;17.30;1.00
1461;DHT22;724;49.910;12.530;2023-05-21T08:30:40;17.90;1.00
1461;DHT22;724;49.910;12.530;2023-05-21T08:33:06;18.00;1.00
1461;DHT22;724;49.910;12.530;2023-05-21T08:35:33;18.20;1.00
1461;DHT22;724;49.910;12.530;2023-05-21T08:38:00;18.20;1.00
1461;DHT22;724;49.910;12.530;2023-05-21T08:40:27;18.10;1.00
1461;DHT22;724;49.910;12.530;2023-05-21T08:42:55;18.30;1.00
1461;DHT22;724;49.910;12.530;2023-05-21T08:45:22;18.30;1.00
1461;DHT22;724;49.910;12.530;2023-05-21T08:47:55;18.30;1.00
1461;DHT22;724;49.910;12.530;2023-05-21T08:50:25;18.60;1.00
1461;DHT22;724;49.910;12.530;2023-05-21T08:52:52;18.70;1.00
1461;DHT22;724;49.910;12.530;2023-05-21T08:55:22;18.50;1.00
1461;DHT22;724;49.910;12.530;2023-05-21T08:57:49;18.80;1.00
1461;DHT22;724;49.910;12.530;2023-05-21T09:00:19;18.70;1.00
1461;DHT22;724;49.910;12.530;2023-05-21T09:02:46;18.60;1.00
1461;DHT22;724;49.910;12.530;2023-05-21T09:05:15;18.80;1.00
1461;DHT22;724;49.910;12.530;2023-05-21T09:07:46;18.60;1.00
1461;DHT22;724;49.910;12.530;2023-05-21T09:10:13;19.00;1.00
1461;DHT22;724;49.910;12.530;2023-05-21T09:12:40;19.30;1.00
1461;DHT22;724;49.910;12.530;2023-05-21T09:15:08;19.50;1.00
1461;DHT22;724;49.910;12.530;2023-05-21T09:17:34;19.40;1.00
1461;DHT22;724;49.910;12.530;2023-05-21T09:20:06;19.60;1.00
1461;DHT22;724;49.910;12.530;2023-05-21T09:22:39;19.70;1.00
1461;DHT22;724;49.910;12.530;2023-05-21T09:25:07;19.80;1.00
1461;DHT22;724;49.910;12.530;2023-05-21T09:27:34;20.00;1.00
1461;DHT22;724;49.910;12.530;2023-05-21T09:30:02;20.40;1.00
1461;DHT22;724;49.910;12.530;2023-05-21T09:32:29;20.80;1.00
1461;DHT22;724;49.910;12.530;2023-05-21T09:34:55;20.80;1.00
1461;DHT22;724;49.910;12.530;2023-05-21T09:37:22;20.80;99.90
1461;DHT22;724;49.910;12.530;2023-05-21T09:39:50;20.90;99.90
1461;DHT22;724;49.910;12.530;2023-05-21T09:42:19;21.10;99.90
1461;DHT22;724;49.910;12.530;2023-05-21T09:44:47;21.00;99.90
1461;DHT22;724;49.910;12.530;2023-05-21T09:47:18;20.80;99.90
1461;DHT22;724;49.910;12.530;2023-05-21T09:49:45;21.30;99.90
1461;DHT22;724;49.910;12.530;2023-05-21T09:52:12;21.70;99.90
1461;DHT22;724;49.910;12.530;2023-05-21T09:54:39;22.10;99.90
1461;DHT22;724;49.910;12.530;2023-05-21T09:57:07;21.90;99.90
1461;DHT22;724;49.910;12.530;2023-05-21T09:59:35;21.80;99.90
1461;DHT22;724;49.910;12.530;2023-05-21T10:02:02;22.40;99.90
1461;DHT22;724;49.910;12.530;2023-05-21T10:04:29;21.80;99.90
1461;DHT22;724;49.910;12.530;2023-05-21T10:06:58;22.40;99.90
1461;DHT22;724;49.910;12.530;2023-05-21T10:09:26;22.30;99.90
1461;DHT22;724;49.910;12.530;2023-05-21T10:11:54;21.60;99.90
1461;DHT22;724;49.910;12.530;2023-05-21T10:14:26;21.90;99.90
1461;DHT22;724;49.910;12.530;2023-05-21T10:16:56;21.20;99.90
1461;DHT22;724;49.910;12.530;2023-05-21T10:19:24;21.60;99.90
1461;DHT22;724;49.910;12.530;2023-05-21T10:21:51;21.50;99.90
1461;DHT22;724;49.910;12.530;2023-05-21T10:24:22;21.60;99.90
1461;DHT22;724;49.910;12.530;2023-05-21T10:26:49;21.60;99.90
1461;DHT22;724;49.910;12.530;2023-05-21T10:29:17;21.40;99.90
1461;DHT22;724;49.910;12.530;2023-05-21T10:31:46;21.40;99.90
1461;DHT22;724;49.910;12.530;2023-05-21T10:34:14;21.70;99.90
1461;DHT22;724;49.910;12.530;2023-05-21T10:36:42;21.80;99.90
1461;DHT22;724;49.910;12.530;2023-05-21T10:39:11;21.50;99.90
1461;DHT22;724;49.910;12.530;2023-05-21T10:41:44;21.30;99.90
1461;DHT22;724;49.910;12.530;2023-05-21T10:44:20;21.30;99.90
1461;DHT22;724;49.910;12.530;2023-05-21T10:47:09;20.70;99.90
1461;DHT22;724;49.910;12.530;2023-05-21T10:49:56;20.70;99.90
1461;DHT22;724;49.910;12.530;2023-05-21T10:52:38;20.80;99.90
1461;DHT22;724;49.910;12.530;2023-05-21T10:55:18;21.20;99.90
1461;DHT22;724;49.910;12.530;2023-05-21T10:58:07;21.10;99.90
1461;DHT22;724;49.910;12.530;2023-05-21T11:00:36;21.00;99.90
1461;DHT22;724;49.910;12.530;2023-05-21T11:03:05;20.90;99.90
1461;DHT22;724;49.910;12.530;2023-05-21T11:05:39;21.00;99.90
1461;DHT22;724;49.910;12.530;2023-05-21T11:08:20;20.90;99.90
1461;DHT22;724;49.910;12.530;2023-05-21T11:10:52;20.90;99.90
1461;DHT22;724;49.910;12.530;2023-05-21T11:13:19;20.80;99.90
1461;DHT22;724;49.910;12.530;2023-05-21T11:16:05;21.00;99.90
1461;DHT22;724;49.910;12.530;2023-05-21T11:18:58;21.00;99.90
1461;DHT22;724;49.910;12.530;2023-05-21T11:21:28;21.70;99.90
1461;DHT22;724;49.910;12.530;2023-05-21T11:23:59;21.50;99.90
1461;DHT22;724;49.910;12.530;2023-05-21T11:26:28;21.70;99.90
1461;DHT22;724;49.910;12.530;2023-05-21T11:29:07;21.60;99.90
1461;DHT22;724;49.910;12.530;2023-05-21T11:31:35;22.00;99.90
1461;DHT22;724;49.910;12.530;2023-05-21T11:34:11;22.10;99.90
1461;DHT22;724;49.910;12.530;2023-05-21T11:36:38;22.10;99.90
1461;DHT22;724;49.910;12.530;2023-05-21T11:39:10;21.60;99.90
1461;DHT22;724;49.910;12.530;2023-05-21T11:41:50;21.80;99.90
1461;DHT22;724;49.910;12.530;2023-05-21T11:44:17;21.80;99.90
1461;DHT22;724;49.910;12.530;2023-05-21T11:46:47;22.30;99.90
1461;DHT22;724;49.910;12.530;2023-05-21T11:49:16;22.20;99.90
1461;DHT22;724;49.910;12.530;2023-05-21T11:51:42;22.20;99.90
1461;DHT22;724;49.910;12.530;2023-05-21T11:54:09;22.60;99.90
1461;DHT22;724;49.910;12.530;2023-05-21T11:56:37;22.60;99.90
1461;DHT22;724;49.910;12.530;2023-05-21T11:59:13;22.50;99.90
1461;DHT22;724;49.910;12.530;2023-05-21T12:01:41;23.20;99.90
1461;DHT22;724;49.910;12.530;2023-05-21T12:04:08;23.40;99.90
1461;DHT22;724;49.910;12.530;2023-05-21T12:06:37;23.80;99.90
1461;DHT22;724;49.910;12.530;2023-05-21T12:09:07;23.80;99.90
1461;DHT22;724;49.910;12.530;2023-05-21T12:11:36;23.70;99.90
1461;DHT22;724;49.910;12.530;2023-05-21T12:14:06;23.60;99.90
1461;DHT22;724;49.910;12.530;2023-05-21T12:16:32;23.30;99.90
1461;DHT22;724;49.910;12.530;2023-05-21T12:18:59;23.10;99.90
1461;DHT22;724;49.910;12.530;2023-05-21T12:21:27;23.20;99.90
1461;DHT22;724;49.910;12.530;2023-05-21T12:23:55;23.40;99.90
1461;DHT22;724;49.910;12.530;2023-05-21T12:26:22;23.30;99.90
1461;DHT22;724;49.910;12.530;2023-05-21T12:28:50;23.20;97.20
1461;DHT22;724;49.910;12.530;2023-05-21T12:31:18;23.00;93.50
1461;DHT22;724;49.910;12.530;2023-05-21T12:33:47;23.60;93.30
1461;DHT22;724;49.910;12.530;2023-05-21T12:36:21;23.40;87.70
1461;DHT22;724;49.910;12.530;2023-05-21T12:38:48;23.60;87.70
1461;DHT22;724;49.910;12.530;2023-05-21T12:41:17;23.50;77.20
1461;DHT22;724;49.910;12.530;2023-05-21T12:43:44;24.30;86.70
1461;DHT22;724;49.910;12.530;2023-05-21T12:46:12;24.10;83.90
1461;DHT22;724;49.910;12.530;2023-05-21T12:48:47;23.60;55.30
1461;DHT22;724;49.910;12.530;2023-05-21T12:51:14;23.30;40.80
1461;DHT22;724;49.910;12.530;2023-05-21T12:53:41;23.60;44.00
1461;DHT22;724;49.910;12.530;2023-05-21T12:56:10;23.70;28.80
1461;DHT22;724;49.910;12.530;2023-05-21T12:58:39;23.30;21.10
1461;DHT22;724;49.910;12.530;2023-05-21T13:01:07;23.60;30.80
1461;DHT22;724;49.910;12.530;2023-05-21T13:03:34;23.80;27.90
1461;DHT22;724;49.910;12.530;2023-05-21T13:06:01;23.60;23.20
1461;DHT22;724;49.910;12.530;2023-05-21T13:08:28;23.40;23.40
1461;DHT22;724;49.910;12.530;2023-05-21T13:10:54;23.60;17.90
1461;DHT22;724;49.910;12.530;2023-05-21T13:13:21;23.60;17.00
1461;DHT22;724;49.910;12.530;2023-05-21T13:15:49;23.30;10.30
1461;DHT22;724;49.910;12.530;2023-05-21T13:18:19;23.40;13.30
1461;DHT22;724;49.910;12.530;2023-05-21T13:20:46;23.30;7.60
1461;DHT22;724;49.910;12.530;2023-05-21T13:23:14;23.10;1.30
1461;DHT22;724;49.910;12.530;2023-05-21T13:25:41;23.30;6.60
1461;DHT22;724;49.910;12.530;2023-05-21T13:28:07;23.00;1.00
1461;DHT22;724;49.910;12.530;2023-05-21T13:30:39;22.70;1.00
1461;DHT22;724;49.910;12.530;2023-05-21T13:33:07;22.60;1.00
1461;DHT22;724;49.910;12.530;2023-05-21T13:35:34;22.60;1.00
1461;DHT22;724;49.910;12.530;2023-05-21T13:38:01;22.50;1.00
1461;DHT22;724;49.910;12.530;2023-05-21T13:40:27;22.50;1.00
1461;DHT22;724;49.910;12.530;2023-05-21T13:42:54;22.60;1.00
1461;DHT22;724;49.910;12.530;2023-05-21T13:45:21;22.70;1.00
1461;DHT22;724;49.910;12.530;2023-05-21T13:47:53;22.60;1.00
1461;DHT22;724;49.910;12.530;2023-05-21T13:50:21;23.20;1.00
1461;DHT22;724;49.910;12.530;2023-05-21T13:52:48;23.00;1.00
1461;DHT22;724;49.910;12.530;2023-05-21T13:55:15;22.80;1.00
1461;DHT22;724;49.910;12.530;2023-05-21T13:57:43;23.00;1.00
1461;DHT22;724;49.910;12.530;2023-05-21T14:00:11;23.40;1.00
1461;DHT22;724;49.910;12.530;2023-05-21T14:02:40;23.40;1.00
1461;DHT22;724;49.910;12.530;2023-05-21T14:05:08;23.50;1.00
1461;DHT22;724;49.910;12.530;2023-05-21T14:07:37;23.50;1.00
1461;DHT22;724;49.910;12.530;2023-05-21T14:10:06;23.90;1.00
1461;DHT22;724;49.910;12.530;2023-05-21T14:12:33;24.00;1.00
1461;DHT22;724;49.910;12.530;2023-05-21T14:15:00;23.80;1.00
1461;DHT22;724;49.910;12.530;2023-05-21T14:17:27;23.00;1.00
1461;DHT22;724;49.910;12.530;2023-05-21T14:19:54;22.80;1.00
1461;DHT22;724;49.910;12.530;2023-05-21T14:22:21;23.00;1.00
1461;DHT22;724;49.910;12.530;2023-05-21T14:24:49;23.60;1.00
1461;DHT22;724;49.910;12.530;2023-05-21T14:27:17;23.50;1.00
1461;DHT22;724;49.910;12.530;2023-05-21T14:29:43;23.30;1.00
1461;DHT22;724;49.910;12.530;2023-05-21T14:32:10;23.40;1.00
1461;DHT22;724;49.910;12.530;2023-05-21T14:34:37;23.40;1.00
1461;DHT22;724;49.910;12.530;2023-05-21T14:37:05;23.80;1.00
1461;DHT22;724;49.910;12.530;2023-05-21T14:39:31;23.80;1.00
1461;DHT22;724;49.910;12.530;2023-05-21T14:42:02;24.10;1.00
1461;DHT22;724;49.910;12.530;2023-05-21T14:44:28;24.30;1.00
1461;DHT22;724;49.910;12.530;2023-05-21T14:46:56;24.40;1.00
1461;DHT22;724;49.910;12.530;2023-05-21T14:49:22;23.90;1.00
1461;DHT22;724;49.910;12.530;2023-05-21T14:51:49;24.30;1.00
1461;DHT22;724;49.910;12.530;2023-05-21T14:54:16;24.10;1.00
1461;DHT22;724;49.910;12.530;2023-05-21T14:56:43;24.10;1.00
1461;DHT22;724;49.910;12.530;2023-05-21T14:59:13;23.80;1.00
1461;DHT22;724;49.910;12.530;2023-05-21T15:01:44;24.10;1.00
1461;DHT22;724;49.910;12.530;2023-05-21T15:04:11;23.70;1.00
1461;DHT22;724;49.910;12.530;2023-05-21T15:06:38;23.20;1.00
1461;DHT22;724;49.910;12.530;2023-05-21T15:09:05;23.10;1.00
1461;DHT22;724;49.910;12.530;2023-05-21T15:11:32;23.30;1.00
1461;DHT22;724;49.910;12.530;2023-05-21T15:14:01;23.50;1.00
1461;DHT22;724;49.910;12.530;2023-05-21T15:16:29;23.40;1.00
1461;DHT22;724;49.910;12.530;2023-05-21T15:18:56;23.20;1.00
1461;DHT22;724;49.910;12.530;2023-05-21T15:21:23;22.90;1.00
1461;DHT22;724;49.910;12.530;2023-05-21T15:23:49;22.50;1.00
1461;DHT22;724;49.910;12.530;2023-05-21T15:26:16;22.50;1.00
1461;DHT22;724;49.910;12.530;2023-05-21T15:28:43;22.60;1.00
1461;DHT22;724;49.910;12.530;2023-05-21T15:31:10;23.10;1.00
1461;DHT22;724;49.910;12.530;2023-05-21T15:33:38;23.40;1.00
1461;DHT22;724;49.910;12.530;2023-05-21T15:36:05;23.00;1.00
1461;DHT22;724;49.910;12.530;2023-05-21T15:38:32;22.80;1.00
1461;DHT22;724;49.910;12.530;2023-05-21T15:40:59;22.90;1.00
1461;DHT22;724;49.910;12.530;2023-05-21T15:43:26;23.00;1.00
1461;DHT22;724;49.910;12.530;2023-05-21T15:45:52;22.80;1.00
1461;DHT22;724;49.910;12.530;2023-05-21T15:48:19;23.00;1.00
1461;DHT22;724;49.910;12.530;2023-05-21T15:50:49;23.00;1.00
1461;DHT22;724;49.910;12.530;2023-05-21T15:53:15;23.00;1.00
1461;DHT22;724;49.910;12.530;2023-05-21T15:55:42;22.90;1.00
1461;DHT22;724;49.910;12.530;2023-05-21T15:58:12;23.00;1.00
1461;DHT22;724;49.910;12.530;2023-05-21T16:00:39;23.10;1.00
1461;DHT22;724;49.910;12.530;2023-05-21T16:03:06;23.10;1.00
1461;DHT22;724;49.910;12.530;2023-05-21T16:05:33;23.00;1.00
1461;DHT22;724;49.910;12.530;2023-05-21T16:08:01;23.00;1.00
1461;DHT22;724;49.910;12.530;2023-05-21T16:10:28;23.00;1.00
1461;DHT22;724;49.910;12.530;2023-05-21T16:12:55;23.20;1.00
1461;DHT22;724;49.910;12.530;2023-05-21T16:15:21;22.90;1.00
1461;DHT22;724;49.910;12.530;2023-05-21T16:17:48;23.10;1.00